createdAt,value
2022-07-28T00:00:38.291Z,101796.66
2022-07-28T00:03:05.343Z,101797.06
2022-07-28T00:05:31.968Z,101797.28
2022-07-28T00:08:01.083Z,101795.97
2022-07-28T00:10:27.732Z,101792.56
2022-07-28T00:12:54.223Z,101796.47
2022-07-28T00:15:20.931Z,101797.56
2022-07-28T00:17:47.372Z,101790.03
2022-07-28T00:20:14.271Z,101799.41
2022-07-28T00:22:44.864Z,101799.53
2022-07-28T00:25:11.706Z,101793.81
2022-07-28T00:27:38.889Z,101797.72
2022-07-28T00:30:08.932Z,101792.63
2022-07-28T00:32:35.683Z,101790.69
2022-07-28T00:35:02.430Z,101800.41
2022-07-28T00:37:29.142Z,101789.50
2022-07-28T00:39:56.334Z,101800.06
2022-07-28T00:42:23.144Z,101797.50
2022-07-28T00:44:49.654Z,101795.06
2022-07-28T00:47:16.487Z,101802.25
2022-07-28T00:49:45.284Z,101797.03
2022-07-28T00:52:12.791Z,101786.56
2022-07-28T00:54:39.415Z,101794.81
2022-07-28T00:57:06.146Z,101786.47
2022-07-28T00:59:33.865Z,101791.69
2022-07-28T01:02:02.128Z,101793.13
2022-07-28T01:04:29.771Z,101802.00
2022-07-28T01:07:08.686Z,101796.91
2022-07-28T01:09:56.356Z,101795.34
2022-07-28T01:12:47.402Z,101792.91
2022-07-28T01:15:25.428Z,101794.00
2022-07-28T01:17:59.897Z,101796.91
2022-07-28T01:20:34.119Z,101795.53
2022-07-28T01:23:12.784Z,101796.28
2022-07-28T01:25:51.557Z,101800.19
2022-07-28T01:28:24.869Z,101801.16
2022-07-28T01:30:56.385Z,101802.00
2022-07-28T01:33:33.571Z,101797.63
2022-07-28T01:36:06.572Z,101797.63
2022-07-28T01:38:35.519Z,101799.44
2022-07-28T01:41:03.983Z,101809.03
2022-07-28T01:43:34.752Z,101808.78
2022-07-28T01:46:03.147Z,101805.03
2022-07-28T01:48:31.309Z,101804.56
2022-07-28T01:50:58.367Z,101796.31
2022-07-28T01:53:26.920Z,101805.28
2022-07-28T01:55:54.624Z,101808.19
2022-07-28T01:58:25.372Z,101808.31
2022-07-28T02:00:53.630Z,101803.06
2022-07-28T02:03:21.957Z,101800.66
2022-07-28T02:05:51.309Z,101802.56
2022-07-28T02:08:23.007Z,101810.69
2022-07-28T02:11:14.288Z,101801.19
2022-07-28T02:13:42.291Z,101798.75
2022-07-28T02:16:11.896Z,101799.13
2022-07-28T02:18:39.654Z,101804.81
2022-07-28T02:21:07.385Z,101794.69
2022-07-28T02:23:35.760Z,101789.94
2022-07-28T02:26:06.620Z,101784.34
2022-07-28T02:28:33.996Z,101798.78
2022-07-28T02:31:06.489Z,101790.38
2022-07-28T02:34:00.313Z,101790.00
2022-07-28T02:36:32.868Z,101791.16
2022-07-28T02:39:06.470Z,101800.03
2022-07-28T02:41:38.166Z,101807.22
2022-07-28T02:44:12.917Z,101804.53
2022-07-28T02:46:45.137Z,101798.34
2022-07-28T02:49:21.199Z,101793.97
2022-07-28T02:51:51.273Z,101793.53
2022-07-28T02:54:19.768Z,101803.81
2022-07-28T02:56:53.743Z,101804.78
2022-07-28T02:59:21.933Z,101811.84
2022-07-28T03:01:49.654Z,101804.78
2022-07-28T03:04:38.074Z,101813.41
2022-07-28T03:07:05.751Z,101815.72
2022-07-28T03:09:40.503Z,101815.47
2022-07-28T03:12:07.599Z,101823.09
2022-07-28T03:14:34.212Z,101817.47
2022-07-28T03:17:00.912Z,101819.06
2022-07-28T03:19:27.370Z,101814.28
2022-07-28T03:21:54.126Z,101824.59
2022-07-28T03:24:26.204Z,101829.44
2022-07-28T03:27:02.459Z,101824.53
2022-07-28T03:29:32.609Z,101829.66
2022-07-28T03:32:00.518Z,101825.69
2022-07-28T03:34:28.528Z,101826.28
2022-07-28T03:37:02.959Z,101825.19
2022-07-28T03:39:33.073Z,101831.84
2022-07-28T03:42:01.418Z,101827.91
2022-07-28T03:44:29.711Z,101830.47
2022-07-28T03:46:56.659Z,101831.91
2022-07-28T03:49:23.205Z,101821.91
2022-07-28T03:51:49.762Z,101834.06
2022-07-28T03:54:16.715Z,101832.91
2022-07-28T03:56:43.415Z,101830.81
2022-07-28T03:59:11.243Z,101828.88
2022-07-28T04:01:38.201Z,101835.78
2022-07-28T04:04:05.067Z,101837.38
2022-07-28T04:06:31.586Z,101837.09
2022-07-28T04:08:57.977Z,101843.91
2022-07-28T04:11:24.414Z,101847.88
2022-07-28T04:13:50.903Z,101841.28
2022-07-28T04:16:17.412Z,101845.38
2022-07-28T04:18:43.850Z,101844.00
2022-07-28T04:21:10.376Z,101843.31
2022-07-28T04:23:36.843Z,101844.47
2022-07-28T04:26:03.356Z,101841.94
2022-07-28T04:28:29.981Z,101828.97
2022-07-28T04:30:56.628Z,101843.81
2022-07-28T04:33:23.176Z,101851.19
2022-07-28T04:35:52.519Z,101853.47
2022-07-28T04:38:20.270Z,101844.31
2022-07-28T04:40:50.107Z,101845.84
2022-07-28T04:43:16.707Z,101841.19
2022-07-28T04:45:53.143Z,101849.84
2022-07-28T04:48:21.549Z,101848.84
2022-07-28T04:50:48.226Z,101853.19
2022-07-28T04:53:14.809Z,101850.19
2022-07-28T04:55:41.277Z,101852.03
2022-07-28T04:58:09.363Z,101858.94
2022-07-28T05:00:36.141Z,101852.53
2022-07-28T05:03:03.606Z,101849.63
2022-07-28T05:05:30.080Z,101842.53
2022-07-28T05:07:56.688Z,101852.25
2022-07-28T05:10:23.324Z,101845.88
2022-07-28T05:12:50.660Z,101846.66
2022-07-28T05:15:17.102Z,101853.53
2022-07-28T05:17:43.495Z,101855.84
2022-07-28T05:20:10.678Z,101856.47
2022-07-28T05:22:48.197Z,101849.09
2022-07-28T05:25:18.987Z,101855.94
2022-07-28T05:27:47.077Z,101858.41
2022-07-28T05:30:15.405Z,101862.28
2022-07-28T05:32:42.012Z,101868.81
2022-07-28T05:35:08.968Z,101871.06
2022-07-28T05:37:36.679Z,101873.66
2022-07-28T05:40:09.699Z,101868.00
2022-07-28T05:42:36.543Z,101866.22
2022-07-28T05:45:15.753Z,101876.03
2022-07-28T05:47:52.626Z,101869.84
2022-07-28T05:50:21.188Z,101878.81
2022-07-28T05:52:48.918Z,101881.03
2022-07-28T05:55:16.370Z,101879.19
2022-07-28T05:57:43.585Z,101883.59
2022-07-28T06:00:13.301Z,101875.34
2022-07-28T06:02:41.383Z,101892.09
2022-07-28T06:05:08.278Z,101885.38
2022-07-28T06:07:43.490Z,101882.72
2022-07-28T06:10:13.199Z,101882.06
2022-07-28T06:12:44.204Z,101888.66
2022-07-28T06:15:15.769Z,101887.66
2022-07-28T06:17:42.610Z,101886.16
2022-07-28T06:20:10.882Z,101879.94
2022-07-28T06:22:44.783Z,101879.78
2022-07-28T06:25:25.297Z,101882.84
2022-07-28T06:27:54.917Z,101889.63
2022-07-28T06:30:22.572Z,101886.91
2022-07-28T06:32:50.016Z,101889.81
2022-07-28T06:35:17.436Z,101892.50
2022-07-28T06:37:45.149Z,101898.25
2022-07-28T06:40:12.854Z,101906.03
2022-07-28T06:42:40.269Z,101898.44
2022-07-28T06:45:08.137Z,101908.88
2022-07-28T06:47:34.921Z,101903.31
2022-07-28T06:50:02.113Z,101898.03
2022-07-28T06:52:28.788Z,101900.06
2022-07-28T06:54:58.070Z,101905.28
2022-07-28T06:57:33.335Z,101893.59
2022-07-28T07:00:03.223Z,101905.28
2022-07-28T07:02:29.941Z,101909.31
2022-07-28T07:04:56.437Z,101914.53
2022-07-28T07:07:23.543Z,101908.66
2022-07-28T07:09:50.057Z,101919.13
2022-07-28T07:12:16.438Z,101912.16
2022-07-28T07:14:42.845Z,101911.47
2022-07-28T07:17:09.233Z,101914.50
2022-07-28T07:19:35.802Z,101914.47
2022-07-28T07:22:02.351Z,101905.25
2022-07-28T07:24:28.797Z,101911.34
2022-07-28T07:26:55.265Z,101906.34
2022-07-28T07:29:22.891Z,101910.91
2022-07-28T07:31:52.869Z,101920.28
2022-07-28T07:34:20.139Z,101919.91
2022-07-28T07:36:46.807Z,101922.19
2022-07-28T07:39:13.455Z,101922.16
2022-07-28T07:41:39.888Z,101913.09
2022-07-28T07:44:06.479Z,101923.06
2022-07-28T07:46:36.376Z,101920.63
2022-07-28T07:49:02.944Z,101920.38
2022-07-28T07:51:29.394Z,101923.97
2022-07-28T07:53:55.827Z,101923.16
2022-07-28T07:56:22.285Z,101915.25
2022-07-28T07:58:53.610Z,101921.53
2022-07-28T08:01:22.981Z,101922.06
2022-07-28T08:03:50.214Z,101917.84
2022-07-28T08:06:16.850Z,101916.56
2022-07-28T08:08:52.851Z,101912.81
2022-07-28T08:11:19.315Z,101915.16
2022-07-28T08:13:45.746Z,101921.41
2022-07-28T08:16:12.194Z,101914.75
2022-07-28T08:18:38.680Z,101917.09
2022-07-28T08:21:05.146Z,101917.84
2022-07-28T08:23:31.632Z,101917.66
2022-07-28T08:25:58.163Z,101918.88
2022-07-28T08:28:24.681Z,101912.16
2022-07-28T08:30:51.267Z,101920.25
2022-07-28T08:33:21.652Z,101925.63
2022-07-28T08:35:49.273Z,101920.25
2022-07-28T08:38:16.494Z,101915.53
2022-07-28T08:40:48.541Z,101916.75
2022-07-28T08:43:32.747Z,101917.41
2022-07-28T08:46:01.202Z,101916.75
2022-07-28T08:48:32.239Z,101913.19
2022-07-28T08:51:07.498Z,101914.38
2022-07-28T08:53:36.169Z,101917.75
2022-07-28T08:56:07.416Z,101909.88
2022-07-28T08:58:35.791Z,101914.94
2022-07-28T09:01:03.746Z,101907.91
2022-07-28T09:03:30.921Z,101907.34
2022-07-28T09:05:58.393Z,101913.53
2022-07-28T09:08:25.424Z,101909.06
2022-07-28T09:10:52.252Z,101898.88
2022-07-28T09:13:19.329Z,101898.94
2022-07-28T09:15:46.851Z,101913.25
2022-07-28T09:18:14.815Z,101905.31
2022-07-28T09:20:43.453Z,101903.00
2022-07-28T09:23:42.594Z,101896.50
2022-07-28T09:26:12.398Z,101902.66
2022-07-28T09:28:49.261Z,101900.78
2022-07-28T09:31:17.317Z,101900.19
2022-07-28T09:34:02.565Z,101910.03
2022-07-28T09:36:30.825Z,101897.22
2022-07-28T09:38:57.353Z,101907.50
2022-07-28T09:41:25.194Z,101902.91
2022-07-28T09:43:55.261Z,101904.16
2022-07-28T09:46:27.361Z,101904.75
2022-07-28T09:48:59.378Z,101911.25
2022-07-28T09:51:31.003Z,101903.50
2022-07-28T09:54:20.259Z,101901.84
2022-07-28T09:56:46.711Z,101902.88
2022-07-28T09:59:14.784Z,101898.47
2022-07-28T10:01:55.076Z,101895.34
2022-07-28T10:04:33.860Z,101898.09
2022-07-28T10:07:14.247Z,101898.31
2022-07-28T10:09:41.449Z,101905.66
2022-07-28T10:12:22.509Z,101904.38
2022-07-28T10:14:51.718Z,101899.97
2022-07-28T10:17:32.145Z,101901.88
2022-07-28T10:20:00.252Z,101901.69
2022-07-28T10:22:29.983Z,101899.78
2022-07-28T10:24:58.440Z,101896.84
2022-07-28T10:27:26.319Z,101900.41
2022-07-28T10:29:58.677Z,101890.50
2022-07-28T10:32:26.507Z,101900.19
2022-07-28T10:35:11.111Z,101900.78
2022-07-28T10:37:43.806Z,101887.59
2022-07-28T10:40:12.523Z,101898.97
2022-07-28T10:42:40.485Z,101895.63
2022-07-28T10:45:09.278Z,101899.38
2022-07-28T10:47:36.324Z,101893.03
2022-07-28T10:50:04.705Z,101899.13
2022-07-28T10:52:50.487Z,101886.97
2022-07-28T10:55:41.897Z,101888.44
2022-07-28T10:58:44.776Z,101887.59
2022-07-28T11:01:47.687Z,101891.78
2022-07-28T11:04:48.271Z,101888.22
2022-07-28T11:07:17.025Z,101892.59
2022-07-28T11:09:44.629Z,101889.19
2022-07-28T11:12:15.257Z,101891.22
2022-07-28T11:14:42.875Z,101874.84
2022-07-28T11:17:11.257Z,101888.66
2022-07-28T11:19:55.709Z,101888.03
2022-07-28T11:22:32.721Z,101889.25
2022-07-28T11:25:19.972Z,101894.06
2022-07-28T11:27:51.657Z,101886.94
2022-07-28T11:30:28.674Z,101891.75
2022-07-28T11:32:55.227Z,101894.00
2022-07-28T11:35:23.234Z,101885.59
2022-07-28T11:38:01.857Z,101885.63
2022-07-28T11:40:31.937Z,101890.59
2022-07-28T11:43:37.104Z,101891.47
2022-07-28T11:46:04.859Z,101888.09
2022-07-28T11:48:39.161Z,101887.66
2022-07-28T11:51:05.840Z,101891.09
2022-07-28T11:53:53.022Z,101887.97
2022-07-28T11:56:24.859Z,101886.72
2022-07-28T11:58:58.363Z,101880.69
2022-07-28T12:01:25.055Z,101878.34
2022-07-28T12:03:55.990Z,101886.63
2022-07-28T12:06:35.377Z,101884.97
2022-07-28T12:09:07.468Z,101877.00
2022-07-28T12:11:36.617Z,101888.34
2022-07-28T12:14:10.245Z,101878.69
2022-07-28T12:16:39.715Z,101885.47
2022-07-28T12:19:07.936Z,101884.63
2022-07-28T12:21:46.576Z,101885.06
2022-07-28T12:24:18.792Z,101879.59
2022-07-28T12:26:49.487Z,101884.22
2022-07-28T12:29:16.635Z,101891.38
2022-07-28T12:31:54.062Z,101886.53
2022-07-28T12:34:21.806Z,101878.34
2022-07-28T12:36:56.918Z,101872.91
2022-07-28T12:39:25.633Z,101877.09
2022-07-28T12:42:04.294Z,101867.66
2022-07-28T12:44:39.005Z,101881.31
2022-07-28T12:47:08.170Z,101877.31
2022-07-28T12:49:36.545Z,101868.94
2022-07-28T12:52:22.092Z,101877.72
2022-07-28T12:54:50.587Z,101885.47
2022-07-28T12:57:48.115Z,101875.84
2022-07-28T13:00:19.500Z,101876.47
2022-07-28T13:02:47.214Z,101873.50
2022-07-28T13:06:03.600Z,101874.16
2022-07-28T13:08:44.636Z,101873.97
2022-07-28T13:11:42.030Z,101872.25
2022-07-28T13:14:01.898Z,101873.31
2022-07-28T13:16:29.756Z,101871.41
2022-07-28T13:18:59.287Z,101864.28
2022-07-28T13:21:58.707Z,101860.72
2022-07-28T13:24:28.892Z,101865.53
2022-07-28T13:26:56.482Z,101867.41
2022-07-28T13:29:23.722Z,101855.69
2022-07-28T13:31:50.829Z,101852.53
2022-07-28T13:34:17.970Z,101857.56
2022-07-28T13:36:44.745Z,101851.69
2022-07-28T13:39:11.521Z,101850.44
2022-07-28T13:41:57.318Z,101840.16
2022-07-28T13:44:24.592Z,101847.09
2022-07-28T13:46:51.661Z,101851.94
2022-07-28T13:49:21.150Z,101848.34
2022-07-28T13:51:48.352Z,101846.25
2022-07-28T13:54:15.017Z,101840.78
2022-07-28T13:56:42.805Z,101841.78
2022-07-28T13:59:10.106Z,101836.66
2022-07-28T14:01:41.471Z,101836.81
2022-07-28T14:04:14.646Z,101834.91
2022-07-28T14:06:44.909Z,101831.13
2022-07-28T14:09:12.310Z,101830.91
2022-07-28T14:11:49.353Z,101830.31
2022-07-28T14:14:20.164Z,101824.31
2022-07-28T14:16:47.832Z,101824.63
2022-07-28T14:19:16.428Z,101833.44
2022-07-28T14:21:50.290Z,101830.50
2022-07-28T14:24:17.495Z,101822.72
2022-07-28T14:26:44.304Z,101825.25
2022-07-28T14:29:11.294Z,101823.28
2022-07-28T14:31:38.475Z,101812.56
2022-07-28T14:34:06.823Z,101820.75
2022-07-28T14:36:33.355Z,101817.00
2022-07-28T14:38:59.830Z,101817.22
2022-07-28T14:41:26.411Z,101815.97
2022-07-28T14:43:53.207Z,101816.84
2022-07-28T14:46:21.893Z,101816.84
2022-07-28T14:48:48.808Z,101809.91
2022-07-28T14:51:15.375Z,101810.16
2022-07-28T14:53:43.295Z,101809.09
2022-07-28T14:56:16.758Z,101809.06
2022-07-28T14:58:43.471Z,101804.00
2022-07-28T15:01:10.457Z,101801.00
2022-07-28T15:03:37.654Z,101801.13
2022-07-28T15:06:09.994Z,101797.53
2022-07-28T15:08:36.463Z,101789.09
2022-07-28T15:11:03.177Z,101796.25
2022-07-28T15:13:29.657Z,101789.38
2022-07-28T15:15:56.777Z,101789.38
2022-07-28T15:18:23.251Z,101785.94
2022-07-28T15:20:51.491Z,101782.13
2022-07-28T15:23:18.089Z,101790.34
2022-07-28T15:25:46.369Z,101779.16
2022-07-28T15:28:17.612Z,101777.75
2022-07-28T15:30:51.667Z,101775.97
2022-07-28T15:33:20.445Z,101780.44
2022-07-28T15:35:58.388Z,101776.19
2022-07-28T15:38:29.526Z,101777.69
2022-07-28T15:41:00.987Z,101773.78
2022-07-28T15:43:32.794Z,101772.44
2022-07-28T15:46:03.332Z,101774.78
2022-07-28T15:48:29.887Z,101772.38
2022-07-28T15:50:57.673Z,101762.50
2022-07-28T15:53:24.191Z,101767.34
2022-07-28T15:55:52.057Z,101767.84
2022-07-28T15:58:19.190Z,101768.34
2022-07-28T16:00:46.013Z,101767.00
2022-07-28T16:03:13.217Z,101756.44
2022-07-28T16:05:40.310Z,101752.69
2022-07-28T16:08:06.932Z,101754.97
2022-07-28T16:10:34.811Z,101762.81
2022-07-28T16:13:02.469Z,101755.53
2022-07-28T16:15:30.219Z,101758.75
2022-07-28T16:17:57.048Z,101751.63
2022-07-28T16:20:24.449Z,101758.78
2022-07-28T16:22:51.388Z,101750.34
2022-07-28T16:25:20.349Z,101756.84
2022-07-28T16:27:48.608Z,101756.16
2022-07-28T16:30:16.552Z,101758.88
2022-07-28T16:32:43.209Z,101755.78
2022-07-28T16:35:10.484Z,101751.16
2022-07-28T16:37:37.415Z,101754.22
2022-07-28T16:40:04.631Z,101753.53
2022-07-28T16:42:31.689Z,101754.34
2022-07-28T16:44:58.618Z,101751.81
2022-07-28T16:47:25.110Z,101753.78
2022-07-28T16:49:51.574Z,101751.66
2022-07-28T16:52:18.098Z,101750.66
2022-07-28T16:54:45.656Z,101751.34
2022-07-28T16:57:14.786Z,101747.66
2022-07-28T16:59:47.912Z,101748.78
2022-07-28T17:02:15.279Z,101751.13
2022-07-28T17:04:42.084Z,101753.69
2022-07-28T17:07:08.713Z,101747.19
2022-07-28T17:09:35.144Z,101744.50
2022-07-28T17:12:01.686Z,101750.81
2022-07-28T17:14:28.180Z,101750.50
2022-07-28T17:16:54.685Z,101749.06
2022-07-28T17:19:22.148Z,101749.75
2022-07-28T17:21:49.080Z,101753.47
2022-07-28T17:24:16.148Z,101751.97
2022-07-28T17:29:31.062Z,101743.13
2022-07-28T17:31:57.717Z,101738.91
2022-07-28T17:34:24.464Z,101737.53
2022-07-28T17:36:51.197Z,101739.44
2022-07-28T17:39:17.681Z,101735.72
2022-07-28T17:41:44.138Z,101742.63
2022-07-28T17:44:10.602Z,101741.19
2022-07-28T17:46:37.118Z,101741.28
2022-07-28T17:49:08.504Z,101739.63
2022-07-28T17:51:34.994Z,101749.13
2022-07-28T17:54:01.462Z,101743.50
2022-07-28T17:56:31.205Z,101755.97
2022-07-28T17:58:58.688Z,101747.63
2022-07-28T18:01:25.268Z,101748.53
2022-07-28T18:03:56.533Z,101752.38
2022-07-28T18:06:28.287Z,101744.03
2022-07-28T18:08:54.741Z,101754.78
2022-07-28T18:11:21.260Z,101749.59
2022-07-28T18:14:03.673Z,101754.22
2022-07-28T18:16:32.206Z,101752.38
2022-07-28T18:18:58.647Z,101748.59
2022-07-28T18:21:26.646Z,101755.97
2022-07-28T18:23:54.899Z,101752.84
2022-07-28T18:26:21.989Z,101746.75
2022-07-28T18:28:48.957Z,101744.84
2022-07-28T18:31:15.762Z,101752.13
2022-07-28T18:33:42.341Z,101753.53
2022-07-28T18:36:09.007Z,101750.69
2022-07-28T18:38:35.494Z,101759.19
2022-07-28T18:41:02.090Z,101746.25
2022-07-28T18:45:54.931Z,101751.59
2022-07-28T18:48:21.504Z,101749.28
2022-07-28T18:50:47.950Z,101741.56
2022-07-28T18:53:14.400Z,101735.66
2022-07-28T18:55:40.810Z,101738.56
2022-07-28T18:58:07.316Z,101741.88
2022-07-28T19:00:33.884Z,101740.53
2022-07-28T19:03:01.561Z,101744.03
2022-07-28T19:05:37.143Z,101746.94
2022-07-28T19:08:04.876Z,101750.19
2022-07-28T19:10:32.581Z,101748.78
2022-07-28T19:12:59.631Z,101744.34
2022-07-28T19:15:26.409Z,101758.69
2022-07-28T19:18:11.182Z,101751.94
2022-07-28T19:20:39.682Z,101751.03
2022-07-28T19:23:06.193Z,101763.81
2022-07-28T19:25:35.552Z,101758.44
2022-07-28T19:28:02.423Z,101750.88
2022-07-28T19:30:30.689Z,101752.00
2022-07-28T19:32:57.236Z,101752.88
2022-07-28T19:35:23.825Z,101753.94
2022-07-28T19:37:50.888Z,101757.19
2022-07-28T19:40:17.368Z,101764.09
2022-07-28T19:42:43.805Z,101763.13
2022-07-28T19:45:10.521Z,101761.75
2022-07-28T19:47:37.209Z,101767.50
2022-07-28T19:50:05.185Z,101765.13
2022-07-28T19:52:31.866Z,101763.56
2022-07-28T19:54:58.327Z,101764.22
2022-07-28T19:57:25.352Z,101769.78
2022-07-28T19:59:51.900Z,101774.47
2022-07-28T20:02:18.358Z,101772.44
2022-07-28T20:04:44.892Z,101777.31
2022-07-28T20:07:11.526Z,101775.44
2022-07-28T20:09:38.625Z,101772.34
2022-07-28T20:12:05.485Z,101772.66
2022-07-28T20:14:34.438Z,101784.44
2022-07-28T20:17:01.094Z,101780.69
2022-07-28T20:19:27.571Z,101785.06
2022-07-28T20:21:54.140Z,101780.78
2022-07-28T20:24:21.149Z,101784.28
2022-07-28T20:26:47.532Z,101774.31
2022-07-28T20:29:14.958Z,101780.63
2022-07-28T20:31:41.543Z,101779.44
2022-07-28T20:34:09.995Z,101776.47
2022-07-28T20:36:36.437Z,101783.34
2022-07-28T20:39:15.758Z,101784.84
2022-07-28T20:41:49.621Z,101784.59
2022-07-28T20:44:28.715Z,101784.22
2022-07-28T20:47:02.330Z,101789.78
2022-07-28T20:49:29.778Z,101793.94
2022-07-28T20:51:57.515Z,101791.53
2022-07-28T20:54:25.593Z,101794.53
2022-07-28T20:56:52.157Z,101802.78
2022-07-28T20:59:18.761Z,101795.19
2022-07-28T21:01:45.348Z,101799.19
2022-07-28T21:04:12.025Z,101789.56
2022-07-28T21:06:39.806Z,101787.50
2022-07-28T21:09:18.087Z,101795.56
2022-07-28T21:11:44.611Z,101791.09
2022-07-28T21:14:11.058Z,101799.72
2022-07-28T21:16:37.605Z,101800.03
2022-07-28T21:19:05.618Z,101800.16
2022-07-28T21:21:32.108Z,101799.81
2022-07-28T21:23:58.574Z,101795.56
2022-07-28T21:26:25.063Z,101812.00
2022-07-28T21:29:10.124Z,101804.53
2022-07-28T21:32:04.307Z,101800.47
2022-07-28T21:34:26.853Z,101808.69
2022-07-28T21:36:53.265Z,101813.69
2022-07-28T21:39:19.965Z,101812.97
2022-07-28T21:41:46.407Z,101810.59
2022-07-28T21:44:12.933Z,101812.56
2022-07-28T21:46:39.732Z,101804.09
2022-07-28T21:49:06.303Z,101809.63
2022-07-28T21:51:32.852Z,101814.31
2022-07-28T21:54:00.133Z,101807.00
2022-07-28T21:56:30.147Z,101810.69
2022-07-28T21:58:57.052Z,101812.53
2022-07-28T22:01:24.216Z,101812.13
2022-07-28T22:03:51.041Z,101819.78
2022-07-28T22:06:17.654Z,101823.06
2022-07-28T22:08:44.228Z,101814.75
2022-07-28T22:11:10.900Z,101820.41
2022-07-28T22:13:37.443Z,101808.56
2022-07-28T22:16:04.096Z,101814.38
2022-07-28T22:18:30.698Z,101817.63
2022-07-28T22:20:57.182Z,101816.53
2022-07-28T22:23:29.799Z,101820.50
2022-07-28T22:25:56.828Z,101828.16
2022-07-28T22:28:29.527Z,101824.34
2022-07-28T22:30:57.444Z,101823.78
2022-07-28T22:33:23.887Z,101826.09
2022-07-28T22:35:51.380Z,101824.81
2022-07-28T22:38:18.053Z,101834.13
2022-07-28T22:40:44.579Z,101823.97
2022-07-28T22:43:11.032Z,101827.94
2022-07-28T22:45:50.344Z,101831.88
2022-07-28T22:48:17.897Z,101826.81
2022-07-28T22:50:44.473Z,101835.13
2022-07-28T22:53:10.973Z,101828.75
2022-07-28T22:55:37.425Z,101824.97
2022-07-28T22:58:05.612Z,101829.63
2022-07-28T23:00:32.871Z,101844.31
2022-07-28T23:03:02.723Z,101832.28
2022-07-28T23:05:30.469Z,101834.81
2022-07-28T23:07:57.615Z,101833.25
2022-07-28T23:10:25.663Z,101842.44
2022-07-28T23:12:52.135Z,101842.16
2022-07-28T23:15:18.725Z,101836.22
2022-07-28T23:17:45.242Z,101839.16
2022-07-28T23:20:11.990Z,101844.09
2022-07-28T23:22:38.426Z,101844.41
2022-07-28T23:25:05.593Z,101839.44
2022-07-28T23:27:32.453Z,101835.31
2022-07-28T23:29:58.858Z,101839.97
2022-07-28T23:32:25.322Z,101848.59
2022-07-28T23:34:51.802Z,101848.72
2022-07-28T23:37:18.465Z,101848.97
2022-07-28T23:39:45.848Z,101848.41
2022-07-28T23:42:12.335Z,101844.16
2022-07-28T23:44:38.828Z,101852.50
2022-07-28T23:47:05.419Z,101851.78
2022-07-28T23:49:31.919Z,101855.44
2022-07-28T23:51:58.475Z,101854.97
2022-07-28T23:54:24.935Z,101851.56
2022-07-28T23:56:56.828Z,101852.69
2022-07-28T23:59:24.240Z,101853.25
